Time;durP1;ratioP1;P1;durP2;ratioP2;P2;SDS_P1;SDS_P2;PMS_P1;PMS_P2;Temp;Humidity;BMP_temperature;BMP_pressure;BME280_temperature;BME280_humidity;BME280_pressure;Samples;Min_cycle;Max_cycle;Signal;HPM_P1;HPM_P2
2022/11/17 00:04:37;;;;;;;1.00;0.57;;;;;;;5.62;93.31;99707.38;10398871;28;20045;-70
2022/11/17 00:09:38;;;;;;;1.85;0.95;;;;;;;5.64;93.23;99703.09;10413739;28;20041;-70
2022/11/17 00:14:40;;;;;;;0.73;0.60;;;;;;;5.59;93.25;99686.53;10398583;28;20033;-69
2022/11/17 00:25:01;;;;;;;0.37;0.30;;;;;;;5.61;92.95;99667.53;10405846;28;20050;-70
2022/11/17 00:30:04;;;;;;;0.70;0.50;;;;;;;5.61;92.91;99658.88;10397242;28;20049;-70
2022/11/17 00:35:06;;;;;;;0.55;0.55;;;;;;;5.59;93.08;99634.59;10397487;28;20413;-70
2022/11/17 00:40:08;;;;;;;1.02;0.85;;;;;;;5.56;92.96;99618.97;10396854;28;20041;-71
2022/11/17 00:45:09;;;;;;;0.90;0.82;;;;;;;5.58;92.87;99619.88;10398036;28;20048;-70
2022/11/17 00:50:11;;;;;;;0.43;0.40;;;;;;;5.55;92.94;99604.22;10404379;28;20056;-71
2022/11/17 00:55:12;;;;;;;1.00;0.90;;;;;;;5.57;93.00;99586.94;10397676;28;20152;-70
2022/11/17 01:00:15;;;;;;;0.80;0.80;;;;;;;5.57;92.81;99569.66;10396793;28;20044;-70
2022/11/17 01:05:16;;;;;;;1.75;1.25;;;;;;;5.57;92.70;99560.97;10397188;28;20394;-70
2022/11/17 01:10:18;;;;;;;1.17;0.60;;;;;;;5.58;92.87;99562.72;10404865;28;20033;-70
2022/11/17 01:15:19;;;;;;;1.17;0.63;;;;;;;5.58;92.98;99563.59;10389741;28;20038;-69
2022/11/17 01:20:21;;;;;;;0.70;0.47;;;;;;;5.59;92.70;99544.59;10396614;28;20138;-70
2022/11/17 01:25:23;;;;;;;2.08;1.27;;;;;;;5.54;92.85;99530.66;10387563;28;20045;-70
2022/11/17 01:30:24;;;;;;;0.35;0.35;;;;;;;5.58;92.67;99521.19;10395057;28;20045;-71
2022/11/17 01:35:26;;;;;;;0.65;0.60;;;;;;;5.54;92.86;99514.19;10395719;28;20474;-70
2022/11/17 01:40:27;;;;;;;1.48;1.30;;;;;;;5.48;92.52;99505.44;10393653;28;20095;-70
2022/11/17 01:45:29;;;;;;;1.42;0.77;;;;;;;5.43;92.67;99514.88;10395120;28;20033;-70
2022/11/17 01:50:35;;;;;;;1.17;0.75;;;;;;;5.43;92.59;99507.06;10394901;28;20487;-70
2022/11/17 01:55:42;;;;;;;0.70;0.63;;;;;;;5.35;92.51;99513.88;10395489;28;20067;-70
2022/11/17 02:00:45;;;;;;;1.40;0.90;;;;;;;5.30;92.50;99494.75;10394315;28;20049;-70
2022/11/17 02:05:53;;;;;;;2.85;1.80;;;;;;;5.25;92.55;99486.00;10395013;28;20409;-70
2022/11/17 02:10:55;;;;;;;0.82;0.73;;;;;;;5.21;92.38;99491.97;10395152;28;20044;-70
2022/11/17 02:15:57;;;;;;;3.25;1.33;;;;;;;5.17;92.42;99479.81;10401866;28;20052;-69
2022/11/17 02:20:58;;;;;;;0.63;0.50;;;;;;;5.21;92.39;99451.34;10394172;28;20041;-70
2022/11/17 02:26:37;;;;;;;0.40;0.40;;;;;;;5.19;92.26;99442.63;10402231;28;20038;-70
2022/11/17 02:32:09;;;;;;;1.65;0.85;;;;;;;5.16;92.17;99439.13;10396269;28;20421;-70
2022/11/17 02:37:38;;;;;;;1.08;0.93;;;;;;;5.17;92.05;99431.38;10403504;28;20421;-70
2022/11/17 02:48:09;;;;;;;1.83;0.93;;;;;;;5.17;91.76;99430.50;10402920;28;20411;-69
2022/11/17 02:53:12;;;;;;;0.75;0.38;;;;;;;5.14;91.51;99416.63;10401059;28;20030;-70
2022/11/17 02:58:14;;;;;;;0.70;0.63;;;;;;;5.13;91.57;99420.06;10402878;28;20185;-70
2022/11/17 03:03:41;;;;;;;0.55;0.40;;;;;;;5.07;91.32;99419.94;10399700;28;20064;-70
2022/11/17 03:08:56;;;;;;;0.75;0.70;;;;;;;5.11;91.33;99421.75;10402715;28;20504;-70
2022/11/17 03:14:11;;;;;;;0.43;0.43;;;;;;;5.17;91.14;99414.94;10400825;28;20052;-70
2022/11/17 03:19:21;;;;;;;0.43;0.25;;;;;;;5.07;90.89;99388.81;10401064;28;20616;-69
2022/11/17 03:24:32;;;;;;;0.10;0.10;;;;;;;5.08;90.88;99406.13;10392950;28;20045;-70
2022/11/17 03:29:37;;;;;;;1.40;0.73;;;;;;;5.10;90.84;99403.56;10392055;28;20080;-70
2022/11/17 03:34:57;;;;;;;1.00;0.80;;;;;;;5.08;90.66;99390.56;10393259;28;20095;-70
2022/11/17 03:40:05;;;;;;;0.65;0.63;;;;;;;5.10;90.52;99388.00;10400336;28;20644;-70
2022/11/17 03:45:30;;;;;;;0.38;0.38;;;;;;;5.10;90.49;99368.13;10400217;28;20409;-70
2022/11/17 03:50:44;;;;;;;0.85;0.75;;;;;;;5.08;90.49;99356.84;10400109;28;20504;-71
2022/11/17 03:55:51;;;;;;;0.28;0.28;;;;;;;5.12;90.56;99340.47;10408090;28;20132;-70
2022/11/17 04:00:57;;;;;;;0.73;0.55;;;;;;;5.13;90.38;99342.22;10399554;28;20560;-70
2022/11/17 04:06:00;;;;;;;1.65;1.00;;;;;;;5.12;90.32;99342.22;10403070;28;20496;-72
2022/11/17 04:16:21;;;;;;;1.00;0.83;;;;;;;5.10;90.29;99326.63;10400059;28;20036;-70
2022/11/17 04:21:22;;;;;;;2.55;0.85;;;;;;;5.11;90.60;99336.13;10397167;28;20468;-70
2022/11/17 04:31:44;;;;;;;1.25;1.00;;;;;;;5.11;89.94;99311.91;10391666;28;20057;-70
2022/11/17 04:36:46;;;;;;;0.55;0.55;;;;;;;5.13;90.06;99333.56;10390408;28;20038;-70
2022/11/17 04:41:53;;;;;;;3.20;1.40;;;;;;;5.16;90.05;99330.16;10397669;28;20046;-70
2022/11/17 04:46:56;;;;;;;0.47;0.40;;;;;;;5.16;89.93;99315.44;10406021;28;20477;-71
2022/11/17 04:51:57;;;;;;;1.50;0.80;;;;;;;5.19;89.72;99312.88;10397529;28;20041;-71
2022/11/17 04:56:59;;;;;;;0.43;0.43;;;;;;;5.17;89.44;99300.75;10393397;28;20041;-72
2022/11/17 05:02:00;;;;;;;0.82;0.40;;;;;;;5.19;89.52;99305.09;10392320;28;20406;-71
2022/11/17 05:07:07;;;;;;;0.65;0.65;;;;;;;5.10;89.35;99310.16;10393703;28;20041;-71
2022/11/17 05:17:29;;;;;;;1.50;0.80;;;;;;;5.03;89.49;99283.25;10397187;28;20049;-71
2022/11/17 05:27:52;;;;;;;4.07;1.77;;;;;;;4.89;90.21;99301.19;10383564;28;20042;-72
2022/11/17 05:32:53;;;;;;;0.73;0.43;;;;;;;4.84;90.12;99282.09;10396103;28;20045;-71
2022/11/17 05:37:55;;;;;;;2.10;0.98;;;;;;;4.84;90.08;99289.00;10396224;28;20042;-71
2022/11/17 05:42:56;;;;;;;4.28;1.23;;;;;;;4.81;90.32;99283.78;10396601;28;21503;-72
2022/11/17 05:47:58;;;;;;;2.63;1.17;;;;;;;4.77;90.32;99286.31;10398768;28;20051;-71
2022/11/17 05:52:59;;;;;;;1.58;1.13;;;;;;;4.71;90.68;99286.19;10400763;28;20084;-71
2022/11/17 05:58:08;;;;;;;0.85;0.63;;;;;;;4.65;90.55;99280.03;10395634;28;20045;-71
2022/11/17 06:03:28;;;;;;;1.27;0.93;;;;;;;4.69;90.68;99261.97;10394851;28;20062;-71
2022/11/17 06:08:30;;;;;;;2.92;1.60;;;;;;;4.67;90.70;99263.66;10394762;28;20054;-71
2022/11/17 06:13:31;;;;;;;1.25;0.70;;;;;;;4.62;90.70;99254.06;10395296;28;20220;-70
2022/11/17 06:18:39;;;;;;;1.85;1.30;;;;;;;4.60;90.84;99259.22;10396218;28;20493;-73
2022/11/17 06:23:43;;;;;;;1.33;0.90;;;;;;;4.60;90.87;99243.66;10387894;28;20042;-73
2022/11/17 06:28:48;;;;;;;2.38;1.35;;;;;;;4.55;90.84;99256.56;10394991;28;20046;-73
2022/11/17 06:33:49;;;;;;;0.70;0.50;;;;;;;4.46;91.14;99237.38;10396231;28;20328;-74
2022/11/17 06:38:51;;;;;;;0.80;0.57;;;;;;;4.38;91.51;99230.38;10415897;28;20045;-73
2022/11/17 06:43:59;;;;;;;0.90;0.82;;;;;;;4.36;91.72;99213.03;10389373;28;20051;-75
2022/11/17 06:49:21;;;;;;;1.10;0.90;;;;;;;4.33;92.02;99225.94;10395687;28;20068;-73
2022/11/17 06:54:24;;;;;;;2.28;1.27;;;;;;;4.29;92.26;99227.59;10411807;28;20042;-73
2022/11/17 06:59:28;;;;;;;0.93;0.75;;;;;;;4.20;92.34;99235.19;10405573;28;20516;-73
2022/11/17 07:04:31;;;;;;;0.98;0.75;;;;;;;4.19;92.69;99213.63;10402098;28;20045;-73
2022/11/17 07:09:36;;;;;;;0.75;0.63;;;;;;;4.17;92.92;99215.28;10410440;28;20481;-73
2022/11/17 07:14:43;;;;;;;1.77;1.05;;;;;;;4.12;93.24;99206.56;10419317;28;20124;-75
2022/11/17 07:19:45;;;;;;;1.08;0.85;;;;;;;4.09;93.65;99203.06;10410689;28;20112;-73
2022/11/17 07:24:46;;;;;;;2.00;1.35;;;;;;;4.06;93.07;99201.28;10403349;28;20501;-73
2022/11/17 07:29:48;;;;;;;2.47;0.95;;;;;;;4.05;93.73;99200.41;10399786;28;20083;-73
2022/11/17 07:34:50;;;;;;;1.85;1.30;;;;;;;4.03;93.79;99199.50;10402459;28;20034;-72
2022/11/17 07:39:51;;;;;;;2.65;0.90;;;;;;;3.99;94.10;99181.28;10410654;28;20568;-73
2022/11/17 07:44:53;;;;;;;1.67;1.52;;;;;;;3.96;94.25;99163.97;10410107;28;20045;-73
2022/11/17 07:49:55;;;;;;;3.53;1.85;;;;;;;3.94;94.29;99149.28;10392515;28;20045;-73
2022/11/17 07:54:56;;;;;;;0.98;0.75;;;;;;;3.87;94.42;99149.16;10400230;28;20103;-74
2022/11/17 07:59:58;;;;;;;0.88;0.73;;;;;;;3.85;94.59;99142.22;10398747;28;20043;-73
2022/11/17 08:04:59;;;;;;;2.63;1.45;;;;;;;3.85;94.82;99148.25;10400988;28;20041;-72
2022/11/17 08:10:01;;;;;;;0.50;0.40;;;;;;;3.82;94.70;99161.16;10397217;28;20509;-73
2022/11/17 08:15:03;;;;;;;0.50;0.50;;;;;;;3.85;94.74;99165.50;10399453;28;20049;-73
2022/11/17 08:20:05;;;;;;;1.48;0.93;;;;;;;3.80;94.79;99164.53;10398761;28;21025;-72
2022/11/17 08:25:07;;;;;;;0.57;0.47;;;;;;;3.79;94.85;99165.41;10397202;28;20038;-72
2022/11/17 08:30:10;;;;;;;1.80;1.65;;;;;;;3.72;94.82;99179.94;10398592;28;20038;-71
2022/11/17 08:35:11;;;;;;;7.65;5.40;;;;;;;3.70;94.74;99155.75;10398770;28;20493;-72
2022/11/17 08:40:14;;;;;;;1.20;0.85;;;;;;;3.69;94.89;99166.94;10399277;28;20074;-71
2022/11/17 08:45:15;;;;;;;0.20;0.20;;;;;;;3.70;94.77;99179.91;10398270;28;20390;-71
2022/11/17 08:50:19;;;;;;;3.25;2.42;;;;;;;3.71;94.71;99189.44;10397871;28;20099;-71
2022/11/17 08:55:21;;;;;;;3.63;1.40;;;;;;;3.72;94.79;99190.28;10397222;28;20033;-71
2022/11/17 09:00:23;;;;;;;0.93;0.80;;;;;;;3.70;95.02;99172.13;10397602;28;20120;-72
2022/11/17 09:05:24;;;;;;;7.63;6.82;;;;;;;3.67;94.76;99181.56;10398636;28;20473;-71
2022/11/17 09:10:27;;;;;;;7.43;5.05;;;;;;;3.66;94.41;99175.53;10397025;28;20554;-71
2022/11/17 09:15:30;;;;;;;1.35;0.82;;;;;;;3.68;94.70;99181.59;10397609;28;20033;-71
2022/11/17 09:20:31;;;;;;;3.38;2.25;;;;;;;3.70;94.39;99197.16;10397331;28;20124;-72
2022/11/17 09:25:33;;;;;;;4.25;1.98;;;;;;;3.66;94.53;99180.72;10388453;28;20045;-72
2022/11/17 09:30:35;;;;;;;1.77;0.95;;;;;;;3.60;94.39;99169.34;10396188;28;20049;-73
2022/11/17 09:35:37;;;;;;;1.38;0.90;;;;;;;3.59;94.45;99173.66;10396298;28;20120;-74
2022/11/17 09:40:40;;;;;;;5.25;1.63;;;;;;;3.62;94.58;99176.31;10395211;28;20045;-72
2022/11/17 09:45:45;;;;;;;2.00;0.90;;;;;;;3.64;94.40;99190.16;10397524;28;20045;-72
2022/11/17 09:50:49;;;;;;;1.70;1.52;;;;;;;3.62;94.01;99196.13;10372062;28;20045;-72
2022/11/17 09:56:00;;;;;;;1.58;1.27;;;;;;;3.65;94.11;99201.41;10380073;28;20526;-72
2022/11/17 10:01:03;;;;;;;3.33;2.20;;;;;;;3.68;94.35;99184.19;10409996;28;20045;-71
2022/11/17 10:06:10;;;;;;;1.10;1.00;;;;;;;3.69;94.33;99170.41;10396227;28;20052;-71
2022/11/17 10:11:30;;;;;;;2.28;1.52;;;;;;;3.67;93.97;99182.44;10395349;28;20431;-72
2022/11/17 10:16:32;;;;;;;0.83;0.77;;;;;;;3.69;94.18;99193.72;10377186;28;20034;-72
2022/11/17 10:21:35;;;;;;;0.22;0.22;;;;;;;3.76;94.10;99197.28;10373477;28;20045;-71
2022/11/17 10:26:47;;;;;;;2.30;1.95;;;;;;;3.74;94.15;99196.38;10381583;28;20109;-71
2022/11/17 10:31:49;;;;;;;2.55;1.42;;;;;;;3.75;94.15;99194.66;10371165;28;20037;-71
2022/11/17 10:36:50;;;;;;;0.60;0.60;;;;;;;3.75;94.07;99192.06;10398438;28;20591;-72
2022/11/17 10:41:52;;;;;;;2.70;1.92;;;;;;;3.75;93.94;99186.91;10400882;28;20471;-74
2022/11/17 10:47:06;;;;;;;1.23;0.75;;;;;;;3.77;94.29;99187.78;10400355;28;20038;-74
2022/11/17 10:52:08;;;;;;;1.58;1.08;;;;;;;3.78;94.25;99179.19;10397864;28;20099;-73
2022/11/17 10:57:23;;;;;;;1.25;0.80;;;;;;;3.78;94.63;99174.00;10382806;28;20119;-70
2022/11/17 11:02:29;;;;;;;1.27;0.77;;;;;;;3.80;94.38;99188.72;10377170;28;20508;-71
2022/11/17 11:07:30;;;;;;;3.63;1.40;;;;;;;3.79;94.29;99175.75;10395971;28;20057;-71
2022/11/17 11:12:49;;;;;;;1.75;0.93;;;;;;;3.77;94.44;99175.72;10402552;28;20057;-71
2022/11/17 11:17:51;;;;;;;1.17;0.93;;;;;;;3.83;94.58;99182.75;10363885;28;20045;-72
2022/11/17 11:23:16;;;;;;;1.13;0.57;;;;;;;3.82;94.56;99170.63;10387101;28;20034;-71
2022/11/17 11:28:47;;;;;;;0.75;0.57;;;;;;;3.86;94.68;99180.22;10395714;28;20053;-72
2022/11/17 11:34:19;;;;;;;1.75;0.98;;;;;;;3.85;94.63;99187.09;10377318;28;20045;-71
2022/11/17 11:39:39;;;;;;;0.95;0.65;;;;;;;3.90;94.63;99182.00;10372367;28;20052;-71
2022/11/17 11:45:02;;;;;;;0.20;0.20;;;;;;;-147.53;94.89;99169.13;10380917;28;20046;-71
2022/11/17 11:50:39;;;;;;;0.35;0.30;;;;;;;3.91;94.74;99181.16;10412827;28;20539;-71
2022/11/17 11:55:46;;;;;;;1.63;0.98;;;;;;;3.94;94.98;99180.34;10347222;28;20184;-71
2022/11/17 12:01:04;;;;;;;0.28;0.28;;;;;;;3.97;95.05;99185.59;10396302;28;20055;-71
2022/11/17 12:06:39;;;;;;;2.65;1.50;;;;;;;3.97;95.12;99194.22;10394913;28;20117;-72
2022/11/17 12:11:59;;;;;;;0.77;0.45;;;;;;;4.00;95.17;99209.81;10394503;28;20109;-72
2022/11/17 12:17:25;;;;;;;0.30;0.30;;;;;;;4.01;95.18;99203.78;10410108;28;20040;-73
2022/11/17 12:22:29;;;;;;;1.13;0.75;;;;;;;4.03;95.22;99209.88;10389961;28;20042;-71
2022/11/17 12:27:31;;;;;;;0.65;0.55;;;;;;;4.05;95.36;99220.25;10405403;28;20037;-71
2022/11/17 12:32:45;;;;;;;0.40;0.35;;;;;;;4.06;95.30;99202.16;10401147;28;20049;-71
2022/11/17 12:37:46;;;;;;;0.43;0.40;;;;;;;4.10;95.27;99207.38;10397998;28;20468;-71
2022/11/17 12:43:21;;;;;;;0.20;0.20;;;;;;;4.15;95.31;99213.53;10390633;28;20041;-71
2022/11/17 12:48:31;;;;;;;0.30;0.30;;;;;;;4.11;95.42;99222.09;10382886;28;20072;-71
2022/11/17 12:53:54;;;;;;;0.30;0.30;;;;;;;4.17;95.49;99219.59;10387983;28;20075;-71
2022/11/17 12:59:16;;;;;;;0.43;0.43;;;;;;;4.19;95.64;99223.13;10407065;28;20509;-71
2022/11/17 13:04:34;;;;;;;0.15;0.15;;;;;;;4.19;95.80;99223.13;10389449;28;20053;-71
2022/11/17 13:09:35;;;;;;;3.10;0.30;;;;;;;4.19;95.66;99221.38;10398183;28;20056;-72
2022/11/17 13:15:04;;;;;;;1.85;1.35;;;;;;;4.19;95.57;99212.75;10404539;28;20544;-71
2022/11/17 13:20:14;;;;;;;0.98;0.63;;;;;;;4.17;95.64;99212.69;10388409;28;20489;-71
2022/11/17 13:25:21;;;;;;;1.23;0.70;;;;;;;4.24;95.75;99219.72;10398564;28;20052;-72
2022/11/17 13:30:29;;;;;;;0.45;0.30;;;;;;;4.26;95.94;99219.75;10401220;28;20529;-71
2022/11/17 13:35:35;;;;;;;5.80;3.08;;;;;;;4.26;95.77;99219.75;10400795;28;20060;-71
2022/11/17 13:40:39;;;;;;;0.93;0.88;;;;;;;4.24;95.65;99226.66;10395577;28;20132;-71
2022/11/17 13:45:42;;;;;;;1.08;0.77;;;;;;;4.31;95.76;99231.09;10403972;28;20151;-71
2022/11/17 13:50:44;;;;;;;0.10;0.10;;;;;;;4.29;95.58;99235.34;10394921;28;20120;-72
2022/11/17 13:55:46;;;;;;;0.80;0.70;;;;;;;4.31;95.77;99233.69;10391401;28;20042;-71
2022/11/17 14:00:56;;;;;;;0.35;0.32;;;;;;;4.32;95.90;99232.81;10398168;28;20144;-72
2022/11/17 14:05:58;;;;;;;;;;;;;;;4.32;95.90;99237.13;10396767;28;20111;-73
2022/11/17 14:11:15;;;;;;;1.30;0.73;;;;;;;4.32;95.92;99245.78;10402898;28;19960;-74
2022/11/17 14:16:39;;;;;;;0.52;0.30;;;;;;;4.29;95.93;99245.72;10405368;28;20128;-73
2022/11/17 14:22:02;;;;;;;0.20;0.20;;;;;;;4.30;96.12;99246.63;10404188;28;20217;-73
2022/11/17 14:27:35;;;;;;;0.20;0.20;;;;;;;4.34;96.11;99249.28;10412693;28;20041;-75
2022/11/17 14:32:40;;;;;;;0.10;0.10;;;;;;;4.32;96.47;99256.13;10404325;28;20520;-75
2022/11/17 14:37:42;;;;;;;0.20;0.15;;;;;;;4.35;96.26;99252.75;10408837;28;20055;-73
2022/11/17 14:42:46;;;;;;;0.20;0.20;;;;;;;4.35;95.89;99263.97;10406196;28;20056;-73
2022/11/17 14:47:48;;;;;;;0.38;0.38;;;;;;;4.36;96.42;99251.91;10409222;28;20046;-74
2022/11/17 14:52:49;;;;;;;0.20;0.20;;;;;;;4.36;96.49;99260.53;10375601;28;20831;-75
2022/11/17 14:57:51;;;;;;;0.13;0.13;;;;;;;4.38;96.40;99268.34;10400360;28;20043;-73
2022/11/17 15:02:53;;;;;;;0.25;0.17;;;;;;;4.38;96.47;99271.81;10400242;28;20049;-73
2022/11/17 15:07:55;;;;;;;0.10;0.10;;;;;;;4.36;96.20;99283.88;10407163;28;20049;-72
2022/11/17 15:12:56;;;;;;;0.32;0.30;;;;;;;4.33;95.90;99282.94;10401617;28;20238;-72
2022/11/17 15:17:58;;;;;;;0.73;0.30;;;;;;;4.35;96.52;99296.78;10402021;28;20513;-74
2022/11/17 15:23:00;;;;;;;0.80;0.68;;;;;;;4.40;96.58;99290.84;10401631;28;20552;-72
2022/11/17 15:28:04;;;;;;;0.65;0.45;;;;;;;4.41;96.54;99291.72;10406351;28;20049;-72
2022/11/17 15:33:06;;;;;;;0.73;0.55;;;;;;;4.42;96.30;99293.47;10400261;28;20044;-73
2022/11/17 15:38:08;;;;;;;0.60;0.57;;;;;;;4.40;96.49;99302.94;10403989;28;20107;-74
2022/11/17 15:43:09;;;;;;;1.85;1.02;;;;;;;4.41;96.51;99304.69;10382443;28;20038;-75
2022/11/17 15:48:11;;;;;;;0.50;0.47;;;;;;;4.39;96.69;99290.84;10414557;28;20518;-74
2022/11/17 15:53:19;;;;;;;1.02;0.93;;;;;;;4.35;96.34;99314.94;10402601;28;20033;-72
2022/11/17 15:58:20;;;;;;;0.85;0.70;;;;;;;4.36;96.73;99314.97;10418133;28;20375;-72
2022/11/17 16:03:22;;;;;;;0.80;0.75;;;;;;;4.38;96.21;99322.75;10413695;28;20421;-72
2022/11/17 16:08:23;;;;;;;0.20;0.20;;;;;;;4.41;96.29;99323.72;10405569;28;20170;-72
2022/11/17 16:13:25;;;;;;;0.40;0.40;;;;;;;4.39;96.49;99329.72;10397097;28;20037;-72
2022/11/17 16:18:27;;;;;;;1.02;0.68;;;;;;;4.43;96.25;99345.34;10406887;28;20448;-72
2022/11/17 16:23:29;;;;;;;0.65;0.50;;;;;;;4.46;96.48;99335.88;10408525;28;20042;-72
2022/11/17 16:28:31;;;;;;;0.32;0.32;;;;;;;4.40;96.52;99340.09;10411900;28;20053;-71
2022/11/17 16:33:33;;;;;;;0.32;0.30;;;;;;;4.41;96.18;99339.25;10411162;28;20871;-72
2022/11/17 16:38:34;;;;;;;0.60;0.60;;;;;;;4.47;96.31;99337.63;10397334;28;20140;-73
2022/11/17 16:43:36;;;;;;;0.43;0.43;;;;;;;4.53;96.40;99341.09;10395615;28;20421;-73
2022/11/17 16:48:46;;;;;;;0.25;0.25;;;;;;;4.49;96.45;99343.69;10395028;28;20038;-72
2022/11/17 16:53:54;;;;;;;0.17;0.17;;;;;;;4.45;96.39;99334.13;10394904;28;20131;-71
2022/11/17 16:58:57;;;;;;;0.20;0.20;;;;;;;4.48;96.53;99349.75;10394090;28;20128;-71
2022/11/17 17:04:02;;;;;;;0.63;0.63;;;;;;;4.44;96.38;99353.97;10409755;28;20041;-71
2022/11/17 17:09:05;;;;;;;0.10;0.10;;;;;;;4.50;96.48;99353.22;10397522;28;20124;-71
2022/11/17 17:14:11;;;;;;;0.30;0.30;;;;;;;4.49;96.35;99372.22;10395653;28;20057;-71
2022/11/17 17:19:14;;;;;;;0.73;0.57;;;;;;;4.52;96.25;99367.09;10401464;28;20049;-71
2022/11/17 17:24:16;;;;;;;0.70;0.57;;;;;;;4.53;96.38;99376.63;10378788;28;20037;-72
2022/11/17 17:29:18;;;;;;;0.47;0.47;;;;;;;4.51;96.18;99374.00;10405991;28;20048;-71
2022/11/17 17:34:20;;;;;;;0.63;0.40;;;;;;;4.57;96.18;99378.44;10391462;28;20072;-70
2022/11/17 17:39:21;;;;;;;0.65;0.32;;;;;;;4.56;96.19;99394.81;10406332;28;20417;-70
2022/11/17 17:44:23;;;;;;;0.52;0.40;;;;;;;4.54;96.36;99405.16;10396044;28;20032;-71
2022/11/17 17:49:24;;;;;;;0.35;0.35;;;;;;;4.57;96.40;99389.66;10399008;28;20045;-71
2022/11/17 17:54:26;;;;;;;0.65;0.65;;;;;;;4.56;96.06;99397.41;10394404;28;20056;-70
2022/11/17 17:59:27;;;;;;;0.88;0.47;;;;;;;4.58;96.19;99408.69;10394727;28;20579;-70
2022/11/17 18:04:29;;;;;;;0.80;0.80;;;;;;;4.54;96.10;99393.94;10400643;28;20509;-70
2022/11/17 18:09:31;;;;;;;1.20;0.77;;;;;;;4.58;96.10;99398.34;10396758;28;20505;-70
2022/11/17 18:14:32;;;;;;;1.13;0.85;;;;;;;4.62;96.28;99410.47;10394418;28;20611;-70
2022/11/17 18:19:34;;;;;;;0.47;0.47;;;;;;;4.64;96.06;99421.78;10396164;28;20086;-70
2022/11/17 18:24:35;;;;;;;0.63;0.63;;;;;;;4.65;96.01;99428.69;10394452;28;20052;-70
2022/11/17 18:29:37;;;;;;;0.77;0.60;;;;;;;4.62;95.98;99428.63;10408744;28;20618;-70
2022/11/17 18:34:40;;;;;;;0.20;0.20;;;;;;;4.60;96.13;99435.53;10394724;28;20049;-70
2022/11/17 18:39:42;;;;;;;1.45;0.55;;;;;;;4.61;95.82;99445.06;10402744;28;20075;-69
2022/11/17 18:44:43;;;;;;;0.32;0.30;;;;;;;4.58;95.48;99440.69;10394887;28;20135;-70
2022/11/17 18:49:45;;;;;;;1.02;0.95;;;;;;;4.61;95.83;99447.66;10394686;28;20540;-70
2022/11/17 18:54:46;;;;;;;0.30;0.30;;;;;;;4.61;96.00;99445.06;10388960;28;20041;-70
2022/11/17 18:59:48;;;;;;;0.25;0.25;;;;;;;4.60;95.87;99451.06;10400019;28;20419;-70
2022/11/17 19:04:49;;;;;;;0.90;0.75;;;;;;;4.58;100.00;75008.06;10401695;28;20044;-70
2022/11/17 19:09:51;;;;;;;0.98;0.90;;;;;;;-147.53;100.00;57128.34;10401068;28;20040;-70
2022/11/17 19:14:53;;;;;;;1.38;0.80;;;;;;;-147.53;100.00;57128.34;10409623;28;20125;-70
2022/11/17 19:19:54;;;;;;;1.38;1.10;;;;;;;-147.53;100.00;57128.34;10396764;28;20045;-70
2022/11/17 19:24:56;;;;;;;1.45;0.98;;;;;;;-147.53;100.00;57128.34;10424565;28;20046;-70
2022/11/17 19:29:58;;;;;;;0.85;0.68;;;;;;;-147.53;100.00;57128.34;10400361;28;20045;-70
2022/11/17 19:34:59;;;;;;;0.85;0.68;;;;;;;-147.53;100.00;57128.34;10400868;28;20049;-69
2022/11/17 19:40:14;;;;;;;0.70;0.70;;;;;;;-147.53;100.00;57128.34;10409183;28;20049;-71
2022/11/17 19:45:16;;;;;;;0.40;0.40;;;;;;;-147.53;100.00;57128.34;10400780;28;20049;-72
2022/11/17 19:50:18;;;;;;;1.58;0.90;;;;;;;-147.53;100.00;57128.34;10416179;28;20099;-72
2022/11/17 19:55:19;;;;;;;1.52;1.13;;;;;;;-147.53;100.00;57128.34;10409148;28;20452;-72
2022/11/17 20:00:21;;;;;;;3.30;1.20;;;;;;;-147.53;100.00;57128.34;10399160;28;20184;-72
2022/11/17 20:05:22;;;;;;;1.35;1.00;;;;;;;-147.53;100.00;57128.34;10401119;28;20045;-71
2022/11/17 20:10:24;;;;;;;1.23;0.75;;;;;;;-147.53;100.00;57128.34;10400430;28;20080;-73
2022/11/17 20:15:26;;;;;;;1.08;0.77;;;;;;;-147.53;100.00;57128.34;10400625;28;20041;-71
2022/11/17 20:20:35;;;;;;;1.85;1.00;;;;;;;-147.53;100.00;57128.34;10401820;28;20118;-71
2022/11/17 20:25:37;;;;;;;3.75;1.10;;;;;;;-147.53;100.00;57128.34;10400483;28;20117;-71
2022/11/17 20:30:39;;;;;;;0.20;0.20;;;;;;;-147.53;100.00;57128.34;10398450;28;20580;-71
2022/11/17 20:35:42;;;;;;;2.10;1.35;;;;;;;-147.53;100.00;57128.34;10398999;28;20497;-72
2022/11/17 20:40:43;;;;;;;0.45;0.30;;;;;;;-147.53;100.00;57128.34;10397753;28;20542;-71
2022/11/17 20:45:48;;;;;;;1.85;0.75;;;;;;;-147.53;100.00;57128.34;10398560;28;20038;-72
2022/11/17 20:50:58;;;;;;;0.20;0.20;;;;;;;-147.53;100.00;57128.34;10398998;28;20528;-71
2022/11/17 20:56:01;;;;;;;0.40;0.40;;;;;;;-147.53;100.00;57128.34;10398629;28;20047;-71
2022/11/17 21:01:13;;;;;;;1.00;0.55;;;;;;;-147.53;100.00;57128.34;10398428;28;20521;-71
2022/11/17 21:06:15;;;;;;;0.70;0.70;;;;;;;-147.53;100.00;57128.34;10399500;28;20049;-71
2022/11/17 21:16:44;;;;;;;2.15;1.10;;;;;;;-147.53;100.00;57128.34;10390397;28;20057;-71
2022/11/17 21:21:48;;;;;;;1.77;1.17;;;;;;;-147.53;100.00;57128.34;10399428;28;20069;-71
2022/11/17 21:26:52;;;;;;;1.52;0.93;;;;;;;-147.53;100.00;57128.34;10404008;28;20128;-71
2022/11/17 21:31:53;;;;;;;0.85;0.60;;;;;;;-147.53;100.00;57128.34;10398078;28;20120;-71
2022/11/17 21:36:55;;;;;;;1.02;0.63;;;;;;;-147.53;100.00;57128.34;10390660;28;20505;-71
2022/11/17 21:41:56;;;;;;;1.67;1.17;;;;;;;-147.53;100.00;57128.34;10388992;28;20037;-71
2022/11/17 21:46:58;;;;;;;3.50;2.83;;;;;;;-147.53;100.00;57128.34;10398152;28;20044;-71
2022/11/17 21:52:00;;;;;;;0.65;0.65;;;;;;;-147.53;100.00;57128.34;10404968;28;20041;-72
2022/11/17 21:57:02;;;;;;;0.70;0.52;;;;;;;-147.53;100.00;57128.34;10398149;28;20029;-71
2022/11/17 22:02:03;;;;;;;0.50;0.50;;;;;;;-147.53;100.00;57128.34;10396798;28;20065;-71
2022/11/17 22:07:05;;;;;;;0.93;0.52;;;;;;;-147.53;100.00;57128.34;10395984;28;20065;-71
2022/11/17 22:12:07;;;;;;;0.35;0.32;;;;;;;-147.53;100.00;57128.34;10412223;28;20052;-71
2022/11/17 22:17:09;;;;;;;0.55;0.55;;;;;;;-147.53;100.00;57128.34;10397182;28;20038;-71
2022/11/17 22:22:10;;;;;;;0.20;0.20;;;;;;;-147.53;100.00;57128.34;10395805;28;20742;-71
2022/11/17 22:27:12;;;;;;;1.05;0.88;;;;;;;-147.53;100.00;57128.34;10396362;28;20034;-71
2022/11/17 22:32:14;;;;;;;1.10;0.93;;;;;;;-147.53;100.00;57128.34;10411607;28;20045;-71
2022/11/17 22:37:15;;;;;;;0.38;0.38;;;;;;;-147.53;100.00;57128.34;10404383;28;20424;-71
2022/11/17 22:42:17;;;;;;;1.15;0.70;;;;;;;-147.53;100.00;57128.34;10403415;28;20041;-71
2022/11/17 22:47:19;;;;;;;0.75;0.57;;;;;;;-147.53;100.00;57128.34;10404123;28;20038;-71
2022/11/17 22:52:20;;;;;;;1.88;1.15;;;;;;;-147.53;100.00;57128.34;10411333;28;20779;-71
2022/11/17 22:57:22;;;;;;;0.40;0.40;;;;;;;-147.53;100.00;57128.34;10426474;28;20042;-71
2022/11/17 23:02:23;;;;;;;0.40;0.40;;;;;;;-147.53;100.00;57128.34;10401355;28;20053;-71
2022/11/17 23:07:25;;;;;;;0.93;0.80;;;;;;;-147.53;100.00;57128.34;10395846;28;20053;-71
2022/11/17 23:12:26;;;;;;;11.05;1.88;;;;;;;-147.53;100.00;57128.34;10403220;28;20510;-71
2022/11/17 23:17:28;;;;;;;0.50;0.43;;;;;;;-147.53;100.00;57128.34;10410921;28;20616;-72
2022/11/17 23:22:30;;;;;;;1.00;0.63;;;;;;;-147.53;100.00;57128.34;10402102;28;20116;-72
2022/11/17 23:27:32;;;;;;;1.45;1.13;;;;;;;-147.53;100.00;57128.34;10384942;28;20046;-72
2022/11/17 23:32:33;;;;;;;1.75;1.15;;;;;;;-147.53;100.00;57128.34;10401607;28;20536;-72
2022/11/17 23:37:35;;;;;;;0.40;0.40;;;;;;;-147.53;100.00;57128.34;10402593;28;20057;-71
2022/11/17 23:42:36;;;;;;;0.90;0.80;;;;;;;-147.53;100.00;57128.34;10400008;28;20062;-73
2022/11/17 23:47:43;;;;;;;0.55;0.55;;;;;;;-147.53;100.00;57128.34;10401527;28;20056;-71
2022/11/17 23:52:45;;;;;;;0.93;0.70;;;;;;;-147.53;100.00;57128.34;10400973;28;20081;-71
2022/11/17 23:57:46;;;;;;;5.05;3.20;;;;;;;-147.53;100.00;57128.34;10401036;28;20051;-72
